Buffalo, MN

7:17 PM CST on February 05, 2016 (GMT -0600)
Buffalo

Weather History for KCFE - September, 2013

Change the Weather History Date:

Thursday, September 12, 2013

  Actual Average (KSTC) Record (KSTC)
Temperature  
Mean Temperature 62 °F 60 °F  
Max Temperature 73 °F 72 °F 91 °F (1948)
Min Temperature 53 °F 49 °F 30 °F (1923)
Degree Days  
Heating Degree Days 2 6  
Month to date heating degree days 55  
Since 1 July heating degree days 113  
Cooling Degree Days 0 1  
Month to date cooling degree days 22  
Year to date cooling degree days 451  
Growing Degree Days 12 (Base 50)    
Moisture  
Dew Point 46 °F    
Average Humidity 57    
Maximum Humidity 84    
Minimum Humidity 32    
Precipitation  
Precipitation 0.00 in 0.12 in 2.45 in (2005)
Month to date precipitation 1.53  
Year to date precipitation 21.11  
Snow  
Snow 0.00 in 0.00 in 0.00 in ()
Month to date snowfall 0.0  
Since 1 July snowfall 0.0  
Since 1 September snowfall 0.0  
Snow Depth -    
Sea Level Pressure  
Sea Level Pressure 30.20 in    
Wind  
Wind Speed 7 mph (NNW)    
Max Wind Speed 15 mph    
Max Gust Speed 23 mph    
Visibility 10 miles    
Events      
T = Trace of Precipitation, MM = Missing Value Source: NWS Daily Summary

Daily Weather History Graph

Daily Weather History Graph

Search for Another Location

Airport or City:

Trip Planner

Search our weather history database for the weather conditions in past years. The results will help you decide how hot, cold, wet, or windy it might be!

Date:

Astronomy

Sep. 12, 2013 Rise Set
Actual Time 6:50 AM CDT 7:31 PM CDT
Civil Twilight 6:20 AM CDT 8:01 PM CDT
Nautical Twilight 5:45 AM CDT 8:36 PM CDT
Astronomical Twilight 5:08 AM CDT 9:12 PM CDT
Moon 2:36 PM CDT (9/12) No Moon Set
Length of Visible Light 13h 40m
Length of Day
12h 40m
Waxing Crescent, 50% of the Moon is Illuminated
Sep 12
Waxing Crescent
Sep 12
First Quarter
Sep 19
Full
Sep 26
Last Quarter
Oct 4
New

Hourly Weather History & Observations

Time (CDT) Temp. Dew Point Humidity Pressure Visibility Wind Dir Wind Speed Gust Speed Precip Events Conditions
12:16 AM 64.6 °F 46.8 °F 52% 30.09 in 10.0 mi NW 5.8 mph - N/A   Clear
12:36 AM 63.7 °F 47.3 °F 55% 30.11 in 10.0 mi NW 5.8 mph - N/A   Clear
12:56 AM 63.3 °F 47.3 °F 56% 30.11 in 10.0 mi NW 6.9 mph - N/A   Clear
1:16 AM 63.5 °F 47.8 °F 57% 30.12 in 10.0 mi NW 6.9 mph - N/A   Clear
1:36 AM 62.1 °F 47.7 °F 59% 30.12 in 10.0 mi NW 5.8 mph - N/A   Clear
1:55 AM 61.2 °F 48.2 °F 62% 30.13 in 10.0 mi NW 4.6 mph - N/A   Clear
2:16 AM 60.3 °F 48.4 °F 65% 30.13 in 10.0 mi NW 5.8 mph - N/A   Clear
2:36 AM 59.5 °F 48.2 °F 66% 30.14 in 10.0 mi NW 4.6 mph - N/A   Clear
2:55 AM 58.8 °F 48.4 °F 68% 30.14 in 10.0 mi NW 3.5 mph - N/A   Clear
3:16 AM 58.1 °F 48.6 °F 71% 30.14 in 10.0 mi NW 4.6 mph - N/A   Clear
3:36 AM 57.7 °F 48.7 °F 72% 30.14 in 10.0 mi NW 4.6 mph - N/A   Clear
3:55 AM 57.7 °F 49.3 °F 73% 30.15 in 10.0 mi WNW 5.8 mph - N/A   Clear
4:16 AM 56.7 °F 49.1 °F 76% 30.16 in 10.0 mi WNW 4.6 mph - N/A   Clear
4:35 AM 55.8 °F 49.1 °F 78% 30.16 in 10.0 mi NW 4.6 mph - N/A   Clear
4:56 AM 55.4 °F 49.1 °F 79% 30.16 in 10.0 mi NW 4.6 mph - N/A   Clear
5:16 AM 54.9 °F 49.1 °F 81% 30.16 in 10.0 mi NW 3.5 mph - N/A   Clear
5:36 AM 55.4 °F 49.1 °F 79% 30.17 in 10.0 mi WNW 5.8 mph - N/A   Clear
5:56 AM 54.7 °F 48.9 °F 81% 30.18 in 10.0 mi WNW 3.5 mph - N/A   Clear
6:16 AM 54.0 °F 48.7 °F 82% 30.18 in 10.0 mi NW 4.6 mph - N/A   Clear
6:36 AM 54.0 °F 49.1 °F 84% 30.19 in 10.0 mi NNW 5.8 mph - N/A   Clear
6:56 AM 54.9 °F 50.0 °F 84% 30.19 in 10.0 mi NNW 4.6 mph - N/A   Clear
7:16 AM 54.9 °F 50.2 °F 84% 30.19 in 10.0 mi NW 3.5 mph - N/A   Clear
7:36 AM 55.8 °F 50.9 °F 84% 30.19 in 10.0 mi NNW 4.6 mph - N/A   Clear
7:56 AM 57.2 °F 51.3 °F 81% 30.20 in 10.0 mi WNW 3.5 mph - N/A   Clear
8:16 AM 57.6 °F 50.9 °F 78% 30.20 in 10.0 mi NW 5.8 mph - N/A   Clear
8:36 AM 59.2 °F 51.4 °F 75% 30.21 in 10.0 mi NW 6.9 mph - N/A   Clear
8:56 AM 60.1 °F 51.3 °F 73% 30.22 in 10.0 mi WNW 5.8 mph - N/A   Clear
9:16 AM 62.1 °F 51.4 °F 68% 30.22 in 10.0 mi NNW 5.8 mph - N/A   Clear
9:36 AM 63.7 °F 52.2 °F 66% 30.22 in 10.0 mi NNW 4.6 mph - N/A   Clear
9:56 AM 65.3 °F 52.2 °F 62% 30.22 in 10.0 mi NW 8.1 mph - N/A   Clear
10:16 AM 65.5 °F 51.4 °F 60% 30.23 in 10.0 mi NW 8.1 mph - N/A   Clear
10:36 AM 66.4 °F 52.0 °F 60% 30.23 in 10.0 mi NW 8.1 mph - N/A   Clear
10:56 AM 67.5 °F 52.0 °F 58% 30.23 in 10.0 mi NW 9.2 mph - N/A   Clear
11:15 AM 67.5 °F 51.3 °F 56% 30.23 in 10.0 mi NNW 9.2 mph - N/A   Clear
11:36 AM 69.1 °F 50.2 °F 51% 30.23 in 10.0 mi NNW 13.8 mph 20.7 mph N/A   Clear
11:56 AM 70.0 °F 48.7 °F 47% 30.23 in 10.0 mi NNW 11.5 mph 17.3 mph N/A   Clear
12:15 PM 71.1 °F 48.2 °F 44% 30.23 in 10.0 mi NNW 10.4 mph 18.4 mph N/A   Scattered Clouds
12:36 PM 71.1 °F 46.9 °F 42% 30.23 in 10.0 mi NW 11.5 mph 19.6 mph N/A   Clear
12:56 PM 71.8 °F 45.0 °F 38% 30.23 in 10.0 mi NW 12.7 mph 18.4 mph N/A   Clear
1:15 PM 72.3 °F 44.6 °F 37% 30.22 in 10.0 mi NNW 15.0 mph 21.9 mph N/A   Scattered Clouds
1:36 PM 72.5 °F 44.6 °F 37% 30.22 in 10.0 mi NNW 11.5 mph 18.4 mph N/A   Scattered Clouds
1:56 PM 72.1 °F 42.4 °F 34% 30.21 in 10.0 mi NNW 12.7 mph 20.7 mph N/A   Mostly Cloudy
2:15 PM 72.7 °F 42.1 °F 33% 30.22 in 10.0 mi NW 13.8 mph 20.7 mph N/A   Scattered Clouds
2:36 PM 71.4 °F 41.9 °F 34% 30.21 in 10.0 mi North 11.5 mph - N/A   Scattered Clouds
2:56 PM 72.1 °F 41.9 °F 34% 30.21 in 10.0 mi NW 12.7 mph 17.3 mph N/A   Mostly Cloudy
3:16 PM 70.3 °F 42.3 °F 36% 30.21 in 10.0 mi NNW 13.8 mph 19.6 mph N/A   Mostly Cloudy
3:36 PM 72.3 °F 41.9 °F 33% 30.20 in 10.0 mi NNW 11.5 mph 20.7 mph N/A   Scattered Clouds
3:55 PM 72.7 °F 41.2 °F 32% 30.20 in 10.0 mi NW 9.2 mph 19.6 mph N/A   Clear
4:16 PM 72.3 °F 41.5 °F 33% 30.20 in 10.0 mi NW 13.8 mph 23.0 mph N/A   Scattered Clouds
4:36 PM 72.5 °F 41.5 °F 33% 30.20 in 10.0 mi NW 10.4 mph 19.6 mph N/A   Scattered Clouds
4:56 PM 71.6 °F 41.2 °F 33% 30.20 in 10.0 mi NNW 11.5 mph 17.3 mph N/A   Scattered Clouds
5:16 PM 71.8 °F 41.2 °F 33% 30.19 in 10.0 mi North 12.7 mph 16.1 mph N/A   Scattered Clouds
5:36 PM 71.1 °F 41.4 °F 34% 30.19 in 10.0 mi North 11.5 mph 18.4 mph N/A   Scattered Clouds
5:56 PM 70.5 °F 41.0 °F 34% 30.20 in 10.0 mi NNW 11.5 mph 17.3 mph N/A   Clear
6:16 PM 69.8 °F 40.1 °F 34% 30.20 in 10.0 mi North 11.5 mph 18.4 mph N/A   Clear
6:36 PM 68.5 °F 41.5 °F 37% 30.20 in 10.0 mi North 11.5 mph 16.1 mph N/A   Scattered Clouds
6:56 PM 67.5 °F 41.5 °F 39% 30.21 in 10.0 mi North 6.9 mph - N/A   Clear
7:16 PM 66.0 °F 42.1 °F 42% 30.21 in 10.0 mi North 4.6 mph - N/A   Clear
7:36 PM 64.0 °F 43.3 °F 47% 30.21 in 10.0 mi North 6.9 mph - N/A   Clear
7:56 PM 62.6 °F 43.7 °F 50% 30.22 in 10.0 mi North 5.8 mph - N/A   Clear
8:16 PM 62.1 °F 44.2 °F 52% 30.23 in 10.0 mi North 5.8 mph - N/A   Clear
8:36 PM 61.3 °F 44.2 °F 53% 30.23 in 10.0 mi North 3.5 mph - N/A   Clear
8:56 PM 60.1 °F 44.6 °F 57% 30.24 in 10.0 mi North 3.5 mph - N/A   Clear
9:16 PM 59.7 °F 44.6 °F 57% 30.24 in 10.0 mi North 3.5 mph - N/A   Clear
9:36 PM 59.0 °F 44.6 °F 59% 30.24 in 10.0 mi North 4.6 mph - N/A   Clear
9:56 PM 55.6 °F 44.6 °F 67% 30.24 in 10.0 mi North 3.5 mph - N/A   Clear
10:16 PM 55.8 °F 44.6 °F 66% 30.24 in 10.0 mi Calm Calm - N/A   Clear
10:36 PM 55.4 °F 44.8 °F 67% 30.25 in 10.0 mi NNE 3.5 mph - N/A   Clear
10:56 PM 55.4 °F 44.8 °F 67% 30.25 in 10.0 mi Calm Calm - N/A   Clear
11:16 PM 54.5 °F 44.8 °F 70% 30.25 in 10.0 mi Calm Calm - N/A   Clear
11:36 PM 53.4 °F 44.4 °F 72% 30.25 in 10.0 mi NNE 5.8 mph - N/A   Clear
11:56 PM 53.6 °F 44.2 °F 71% 30.25 in 10.0 mi NNE 3.5 mph - N/A   Clear